Time;durP1;ratioP1;P1;durP2;ratioP2;P2;SDS_P1;SDS_P2;PMS_P1;PMS_P2;Temp;Humidity;BMP_temperature;BMP_pressure;BME280_temperature;BME280_humidity;BME280_pressure;Samples;Min_cycle;Max_cycle;Signal;HPM_P1;HPM_P2
2023/01/17 00:01:12;;;;;;;3.88;2.22;;;;;4.00;95629.00;;;;4899414;29;20056;-63
2023/01/17 00:11:57;;;;;;;3.70;2.60;;;;;3.90;95632.00;;;;4899490;29;20120;-64
2023/01/17 00:14:24;;;;;;;8.85;2.72;;;;;3.90;95625.00;;;;4898882;29;20559;-61
2023/01/17 00:16:50;;;;;;;5.10;2.20;;;;;3.90;95637.00;;;;4899600;29;20052;-63
2023/01/17 01:34:18;;;;;;;4.43;2.72;;;;;4.10;95702.00;;;;4897841;29;20506;-64
2023/01/17 01:36:45;;;;;;;5.60;2.90;;;;;4.20;95707.00;;;;4896606;29;20052;-63
2023/01/17 01:39:11;;;;;;;4.25;2.78;;;;;4.20;95711.00;;;;4896786;29;20088;-63
2023/01/17 01:41:38;;;;;;;7.88;3.50;;;;;4.20;95715.00;;;;4898086;29;20095;-64
2023/01/17 01:44:39;;;;;;;5.13;3.03;;;;;4.20;95711.00;;;;4896035;29;20059;-60
2023/01/17 01:47:09;;;;;;;6.82;3.17;;;;;4.20;95723.00;;;;4897846;29;20048;-63
2023/01/17 01:49:36;;;;;;;4.57;3.17;;;;;4.30;95722.00;;;;4897936;29;20554;-62
2023/01/17 01:52:06;;;;;;;5.43;3.25;;;;;4.30;95709.00;;;;4898449;29;20045;-60
2023/01/17 01:54:43;;;;;;;5.22;2.67;;;;;4.30;95715.00;;;;4896508;29;20056;-62
2023/01/17 01:57:14;;;;;;;4.38;3.08;;;;;4.30;95724.00;;;;4897325;29;20053;-62
2023/01/17 01:59:47;;;;;;;5.45;2.80;;;;;4.20;95726.00;;;;4896995;29;20097;-62
2023/01/17 02:02:14;;;;;;;5.20;2.80;;;;;4.20;95726.00;;;;4897898;29;20433;-61
2023/01/17 03:45:37;;;;;;;5.45;3.20;;;;;3.60;95710.00;;;;4899608;29;20193;-62
2023/01/17 03:48:05;;;;;;;4.78;2.67;;;;;3.50;95704.00;;;;4900235;29;20063;-60
2023/01/17 03:50:31;;;;;;;4.25;3.00;;;;;3.40;95709.00;;;;4898913;29;20570;-63
2023/01/17 03:52:58;;;;;;;5.25;3.03;;;;;3.40;95709.00;;;;4900229;29;20076;-62
2023/01/17 03:55:24;;;;;;;8.63;3.55;;;;;3.40;95715.00;;;;4899433;29;20040;-61
2023/01/17 03:57:51;;;;;;;6.60;3.42;;;;;3.40;95702.00;;;;4903367;29;20054;-63
2023/01/17 04:00:17;;;;;;;4.78;3.28;;;;;3.50;95710.00;;;;4904395;29;20557;-61
2023/01/17 04:02:44;;;;;;;6.28;2.90;;;;;3.60;95709.00;;;;4905190;29;20056;-61
2023/01/17 04:05:11;;;;;;;7.75;4.15;;;;;3.50;95716.00;;;;4905185;29;20130;-62
2023/01/17 04:07:37;;;;;;;6.60;3.92;;;;;3.60;95720.00;;;;4904568;29;20052;-62
2023/01/17 04:10:04;;;;;;;5.72;3.45;;;;;3.70;95721.00;;;;4902941;29;20044;-62
2023/01/17 04:12:31;;;;;;;4.80;2.85;;;;;3.70;95720.00;;;;4902765;29;20116;-62
2023/01/17 04:14:57;;;;;;;5.78;3.03;;;;;3.70;95714.00;;;;4903024;29;20045;-60
2023/01/17 04:17:24;;;;;;;7.60;3.10;;;;;3.70;95709.00;;;;4901845;29;20092;-61
2023/01/17 04:19:50;;;;;;;5.13;3.55;;;;;3.70;95707.00;;;;4900698;29;20092;-61
2023/01/17 04:22:17;;;;;;;5.10;3.30;;;;;3.70;95707.00;;;;4900919;29;20049;-61
2023/01/17 04:24:44;;;;;;;9.57;3.72;;;;;3.70;95717.00;;;;4900091;29;20045;-61
2023/01/17 04:27:13;;;;;;;5.22;2.58;;;;;3.70;95711.00;;;;4899479;29;20124;-61
2023/01/17 04:29:39;;;;;;;4.30;3.08;;;;;3.80;95709.00;;;;4901230;29;20045;-62
2023/01/17 04:32:06;;;;;;;5.70;3.60;;;;;3.80;95705.00;;;;4901107;29;20044;-62
2023/01/17 04:34:32;;;;;;;6.88;3.80;;;;;3.80;95718.00;;;;4903689;29;20399;-61
2023/01/17 04:36:59;;;;;;;5.97;3.40;;;;;3.70;95722.00;;;;4903254;29;20158;-60
2023/01/17 04:39:25;;;;;;;3.88;3.10;;;;;3.70;95741.00;;;;4900542;29;20045;-62
2023/01/17 04:41:52;;;;;;;5.05;3.08;;;;;3.80;95740.00;;;;4902152;29;20048;-61
2023/01/17 04:44:18;;;;;;;8.00;3.30;;;;;3.80;95740.00;;;;4900118;29;20527;-61
2023/01/17 04:46:44;;;;;;;5.68;3.53;;;;;3.90;95745.00;;;;4900160;29;20060;-60
2023/01/17 04:49:11;;;;;;;4.43;2.70;;;;;3.90;95738.00;;;;4900528;29;20052;-60
2023/01/17 04:51:37;;;;;;;7.25;3.45;;;;;4.00;95739.00;;;;4899698;29;20044;-61
2023/01/17 04:54:04;;;;;;;5.68;3.33;;;;;3.90;95746.00;;;;4899381;29;20045;-61
2023/01/17 04:56:30;;;;;;;6.13;3.30;;;;;3.90;95745.00;;;;4899627;29;20451;-61
2023/01/17 04:58:57;;;;;;;4.75;3.08;;;;;3.90;95738.00;;;;4899475;29;20048;-61
2023/01/17 05:01:24;;;;;;;6.78;3.63;;;;;3.90;95746.00;;;;5319679;23;20354;-63
2023/01/17 05:03:51;;;;;;;4.93;3.38;;;;;3.90;95747.00;;;;4898228;29;20060;-61
2023/01/17 05:06:17;;;;;;;7.82;3.40;;;;;4.00;95744.00;;;;4899169;29;20048;-61
2023/01/17 05:08:44;;;;;;;7.45;3.80;;;;;4.10;95747.00;;;;4899236;29;20556;-62
2023/01/17 05:11:10;;;;;;;5.93;3.75;;;;;4.10;95735.00;;;;4898954;29;20100;-62
2023/01/17 05:13:37;;;;;;;9.00;3.50;;;;;4.00;95740.00;;;;4899273;29;20048;-62
2023/01/17 05:16:03;;;;;;;5.85;3.47;;;;;4.00;95730.00;;;;4898766;29;20398;-61
2023/01/17 05:18:30;;;;;;;6.13;3.28;;;;;4.00;95725.00;;;;4899896;29;20131;-63
2023/01/17 05:21:03;;;;;;;6.95;3.92;;;;;4.10;95735.00;;;;4900073;29;20053;-62
2023/01/17 05:23:31;;;;;;;4.80;3.40;;;;;4.00;95733.00;;;;4899510;29;20059;-62
2023/01/17 05:25:58;;;;;;;6.00;4.30;;;;;3.90;95730.00;;;;4898675;29;20052;-62
2023/01/17 05:28:24;;;;;;;5.53;3.70;;;;;4.00;95728.00;;;;4898943;29;20065;-62
2023/01/17 05:30:51;;;;;;;6.57;3.58;;;;;4.00;95727.00;;;;4906243;29;20048;-61
2023/01/17 05:33:17;;;;;;;4.63;3.33;;;;;4.00;95730.00;;;;4906775;29;20049;-62
2023/01/17 05:35:44;;;;;;;6.15;3.50;;;;;4.00;95718.00;;;;4907132;29;20081;-62
2023/01/17 05:38:10;;;;;;;5.75;3.97;;;;;4.00;95724.00;;;;4906066;29;20048;-62
2023/01/17 05:40:37;;;;;;;5.60;3.65;;;;;3.90;95733.00;;;;4907000;29;20045;-62
2023/01/17 05:43:03;;;;;;;9.88;3.40;;;;;3.90;95732.00;;;;4907021;29;20052;-62
2023/01/17 05:45:32;;;;;;;6.88;3.47;;;;;3.90;95735.00;;;;4906078;29;20040;-62
2023/01/17 05:47:59;;;;;;;6.50;3.55;;;;;3.90;95741.00;;;;4906100;29;20048;-61
2023/01/17 05:50:32;;;;;;;8.18;3.58;;;;;3.90;95739.00;;;;4887394;29;20045;-59
2023/01/17 05:53:01;;;;;;;6.05;4.15;;;;;3.90;95739.00;;;;4904126;29;20048;-61
2023/01/17 05:55:29;;;;;;;5.80;3.50;;;;;3.90;95740.00;;;;4905191;29;20048;-61
2023/01/17 05:57:57;;;;;;;7.82;3.90;;;;;3.90;95744.00;;;;4906228;29;20390;-61
2023/01/17 06:00:24;;;;;;;7.10;3.83;;;;;3.90;95739.00;;;;4905421;29;20103;-61
2023/01/17 06:02:55;;;;;;;5.85;3.83;;;;;4.00;95739.00;;;;4903413;29;20053;-60
2023/01/17 06:05:22;;;;;;;5.82;3.85;;;;;4.00;95730.00;;;;4903083;29;20044;-61
2023/01/17 06:07:49;;;;;;;6.65;3.53;;;;;4.10;95733.00;;;;4903438;29;20052;-60
2023/01/17 06:10:18;;;;;;;4.75;3.58;;;;;4.10;95733.00;;;;4902691;29;20041;-61
2023/01/17 06:12:45;;;;;;;7.20;4.10;;;;;4.10;95732.00;;;;4901023;29;20044;-61
2023/01/17 06:15:14;;;;;;;7.97;4.15;;;;;4.10;95722.00;;;;4899892;29;20080;-62
2023/01/17 06:17:41;;;;;;;7.10;4.47;;;;;4.10;95724.00;;;;4900469;29;20048;-61
2023/01/17 06:20:09;;;;;;;7.57;4.70;;;;;4.10;95720.00;;;;4900619;29;20045;-61
2023/01/17 06:22:36;;;;;;;8.25;4.70;;;;;4.10;95731.00;;;;4900982;29;20112;-61
2023/01/17 06:25:03;;;;;;;7.97;4.50;;;;;4.10;95726.00;;;;4899714;29;20110;-61
2023/01/17 06:27:29;;;;;;;8.43;4.57;;;;;4.10;95725.00;;;;4899531;29;20052;-61
2023/01/17 06:29:56;;;;;;;7.75;5.10;;;;;4.20;95728.00;;;;4899177;29;20116;-61
2023/01/17 06:32:22;;;;;;;8.10;4.93;;;;;4.20;95730.00;;;;4898464;29;20048;-62
2023/01/17 06:34:49;;;;;;;6.95;4.32;;;;;4.20;95740.00;;;;4896390;29;20413;-61
2023/01/17 06:37:15;;;;;;;10.52;4.82;;;;;4.30;95742.00;;;;4897203;29;20056;-62
2023/01/17 06:39:42;;;;;;;8.38;5.20;;;;;4.30;95745.00;;;;4897283;29;20044;-62
2023/01/17 06:42:08;;;;;;;8.43;5.03;;;;;4.30;95738.00;;;;4898293;29;20044;-62
2023/01/17 06:44:35;;;;;;;10.55;4.90;;;;;4.30;95741.00;;;;4897325;29;20044;-62
2023/01/17 06:47:01;;;;;;;6.88;4.10;;;;;4.30;95743.00;;;;4897982;29;20052;-62
2023/01/17 06:49:28;;;;;;;9.02;4.93;;;;;4.40;95731.00;;;;4900090;29;20052;-62
2023/01/17 06:51:54;;;;;;;7.70;5.07;;;;;4.40;95735.00;;;;4897466;29;20111;-62
2023/01/17 06:54:21;;;;;;;8.00;4.88;;;;;4.30;95738.00;;;;4897285;29;20052;-62
2023/01/17 06:56:47;;;;;;;11.35;4.97;;;;;4.30;95738.00;;;;4895515;29;20100;-62
2023/01/17 06:59:14;;;;;;;8.63;4.70;;;;;4.30;95739.00;;;;4897246;29;20056;-62
2023/01/17 07:01:40;;;;;;;11.45;8.02;;;;;4.30;95736.00;;;;4897002;29;20057;-62
2023/01/17 07:04:07;;;;;;;8.40;6.43;;;;;4.30;95732.00;;;;4896509;29;20050;-62
2023/01/17 07:06:35;;;;;;;7.72;4.72;;;;;4.40;95726.00;;;;4895847;29;20051;-61
2023/01/17 07:09:03;;;;;;;10.90;5.90;;;;;4.40;95716.00;;;;4897078;29;20104;-61
2023/01/17 07:11:30;;;;;;;6.40;4.75;;;;;4.40;95725.00;;;;4897118;29;20044;-61
2023/01/17 07:13:56;;;;;;;7.90;4.20;;;;;4.40;95729.00;;;;4897190;29;20040;-64
2023/01/17 07:16:23;;;;;;;11.75;6.35;;;;;4.30;95729.00;;;;4896542;29;20057;-62
2023/01/17 07:18:50;;;;;;;9.60;4.80;;;;;4.30;95730.00;;;;4896827;29;20056;-62
2023/01/17 07:21:17;;;;;;;8.88;4.70;;;;;4.20;95725.00;;;;4896739;29;20049;-62
2023/01/17 07:23:43;;;;;;;8.85;4.88;;;;;4.20;95724.00;;;;4896729;29;20052;-61
2023/01/17 07:26:10;;;;;;;9.02;4.93;;;;;4.10;95720.00;;;;4896456;29;20044;-62
2023/01/17 07:28:36;;;;;;;7.13;4.72;;;;;3.90;95716.00;;;;4897074;29;20060;-62
2023/01/17 07:31:05;;;;;;;8.57;5.25;;;;;4.00;95716.00;;;;4897092;29;20454;-61
2023/01/17 07:33:32;;;;;;;9.02;4.68;;;;;3.90;95710.00;;;;4896948;29;20433;-61
2023/01/17 07:36:02;;;;;;;9.50;4.97;;;;;3.80;95709.00;;;;4896693;29;20056;-62
2023/01/17 07:38:29;;;;;;;11.07;6.43;;;;;3.90;95710.00;;;;4895686;29;20057;-62
2023/01/17 07:40:59;;;;;;;10.57;5.53;;;;;4.00;95707.00;;;;4895645;29;20497;-62
2023/01/17 07:43:26;;;;;;;7.60;4.68;;;;;4.10;95716.00;;;;4896965;29;20409;-62
2023/01/17 07:45:53;;;;;;;7.97;4.60;;;;;4.10;95702.00;;;;4896034;29;20052;-62
2023/01/17 07:48:22;;;;;;;6.45;4.40;;;;;4.10;95703.00;;;;4896948;29;20068;-62
2023/01/17 07:50:53;;;;;;;9.30;4.70;;;;;3.90;95705.00;;;;4896541;29;20069;-62
2023/01/17 07:53:24;;;;;;;5.45;4.10;;;;;3.80;95686.00;;;;4896566;29;20080;-63
2023/01/17 07:55:51;;;;;;;6.97;4.68;;;;;3.70;95696.00;;;;4894975;29;20088;-62
2023/01/17 07:58:18;;;;;;;7.22;4.57;;;;;3.60;95700.00;;;;4896518;29;20096;-62
2023/01/17 08:00:45;;;;;;;8.38;4.75;;;;;3.60;95708.00;;;;4896583;29;20048;-60
2023/01/17 08:03:14;;;;;;;5.93;4.15;;;;;3.60;95699.00;;;;4896423;29;20056;-63
2023/01/17 08:05:42;;;;;;;6.55;4.18;;;;;3.50;95690.00;;;;4896187;29;20399;-62
2023/01/17 08:08:09;;;;;;;8.18;4.47;;;;;3.50;95682.00;;;;4897252;29;20498;-62
2023/01/17 08:10:35;;;;;;;8.30;4.60;;;;;3.50;95687.00;;;;4898571;29;20071;-62
2023/01/17 08:13:02;;;;;;;8.13;5.03;;;;;3.60;95689.00;;;;4899905;29;20462;-62
2023/01/17 08:15:28;;;;;;;5.28;4.25;;;;;3.60;95687.00;;;;4898089;29;20466;-62
2023/01/17 08:17:57;;;;;;;6.18;4.47;;;;;3.50;95682.00;;;;4899917;29;20548;-62
2023/01/17 08:20:24;;;;;;;8.00;4.80;;;;;3.50;95678.00;;;;4899952;29;20040;-62
2023/01/17 08:22:55;;;;;;;8.15;4.70;;;;;3.50;95670.00;;;;4898820;29;20044;-62
2023/01/17 08:25:23;;;;;;;9.25;4.32;;;;;3.50;95672.00;;;;4899243;29;20060;-62
2023/01/17 08:27:50;;;;;;;6.07;4.15;;;;;3.40;95666.00;;;;4899821;29;20076;-62
2023/01/17 08:30:17;;;;;;;9.18;5.15;;;;;3.50;95668.00;;;;4899625;29;20053;-62
2023/01/17 08:32:44;;;;;;;7.05;4.20;;;;;3.60;95679.00;;;;4898453;29;20057;-62
2023/01/17 08:35:10;;;;;;;9.60;4.45;;;;;3.70;95674.00;;;;4899560;29;20045;-62
2023/01/17 08:37:37;;;;;;;7.72;4.40;;;;;3.80;95665.00;;;;4900039;29;20048;-62
2023/01/17 08:40:05;;;;;;;10.40;4.95;;;;;3.80;95668.00;;;;4899378;29;20044;-62
2023/01/17 08:42:38;;;;;;;7.80;4.95;;;;;3.90;95660.00;;;;4899513;29;20044;-62
2023/01/17 08:45:06;;;;;;;7.22;4.13;;;;;4.00;95671.00;;;;4899125;29;20064;-62
2023/01/17 08:47:34;;;;;;;7.93;4.85;;;;;4.00;95668.00;;;;4899454;29;20569;-62
2023/01/17 08:50:00;;;;;;;7.97;4.93;;;;;4.00;95664.00;;;;4899369;29;20123;-62
2023/01/17 08:52:27;;;;;;;8.45;4.85;;;;;3.90;95666.00;;;;4899065;29;20416;-62
2023/01/17 08:54:54;;;;;;;7.63;5.07;;;;;4.00;95669.00;;;;4898637;29;20045;-61
2023/01/17 08:57:21;;;;;;;7.25;5.00;;;;;4.00;95671.00;;;;4898060;29;20104;-61
2023/01/17 08:59:47;;;;;;;6.20;4.00;;;;;4.10;95673.00;;;;4898035;29;20056;-61
2023/01/17 09:02:16;;;;;;;9.20;3.70;;;;;4.10;95674.00;;;;4894843;28;20450;-61
2023/01/17 09:04:44;;;;;;;8.63;4.40;;;;;4.10;95675.00;;;;4898524;29;20052;-61
2023/01/17 09:07:10;;;;;;;6.18;4.38;;;;;4.10;95680.00;;;;4897854;29;20067;-61
2023/01/17 09:09:37;;;;;;;6.10;4.35;;;;;4.20;95674.00;;;;4899062;29;20040;-62
2023/01/17 09:12:03;;;;;;;5.85;3.97;;;;;4.30;95680.00;;;;4898714;29;20553;-61
2023/01/17 09:14:30;;;;;;;7.20;4.35;;;;;4.30;95685.00;;;;4898324;29;20079;-62
2023/01/17 09:16:57;;;;;;;5.85;4.05;;;;;4.20;95680.00;;;;4899761;29;20497;-61
2023/01/17 09:19:23;;;;;;;6.68;3.80;;;;;4.20;95684.00;;;;4898048;29;20044;-62
2023/01/17 09:21:50;;;;;;;8.02;4.07;;;;;4.30;95691.00;;;;4898538;29;20044;-61
2023/01/17 09:24:16;;;;;;;7.93;4.35;;;;;4.30;95692.00;;;;4898294;29;20059;-60
2023/01/17 09:26:43;;;;;;;6.85;4.38;;;;;4.40;95688.00;;;;4898872;29;20474;-60
2023/01/17 09:29:12;;;;;;;5.65;3.88;;;;;4.50;95692.00;;;;4898782;29;20049;-60
2023/01/17 09:31:40;;;;;;;9.35;4.43;;;;;4.60;95694.00;;;;4898577;29;20056;-61
2023/01/17 09:34:07;;;;;;;8.98;4.45;;;;;4.70;95694.00;;;;4898836;29;20569;-61
2023/01/17 09:36:34;;;;;;;7.43;4.40;;;;;4.70;95703.00;;;;4899436;29;20406;-61
2023/01/17 09:39:01;;;;;;;6.47;4.43;;;;;4.80;95698.00;;;;4897309;29;20410;-60
2023/01/17 09:41:34;;;;;;;7.47;4.40;;;;;4.90;95706.00;;;;4898631;29;20101;-61
2023/01/17 09:44:37;;;;;;;6.25;4.22;;;;;5.10;95701.00;;;;4898604;29;20045;-61
2023/01/17 09:47:39;;;;;;;10.60;4.32;;;;;5.10;95699.00;;;;4897248;29;20044;-62
2023/01/17 09:50:36;;;;;;;13.52;5.57;;;;;5.00;95691.00;;;;4897206;29;20091;-61
2023/01/17 09:53:15;;;;;;;8.05;4.20;;;;;5.00;95699.00;;;;4898303;29;20410;-62
2023/01/17 09:55:47;;;;;;;9.15;4.15;;;;;5.00;95705.00;;;;4896746;29;20057;-60
2023/01/17 09:58:30;;;;;;;7.68;3.92;;;;;5.00;95695.00;;;;4898443;29;20494;-60
2023/01/17 10:01:16;;;;;;;4.55;3.55;;;;;5.00;95707.00;;;;4896901;29;20620;-62
2023/01/17 10:04:06;;;;;;;7.18;3.95;;;;;5.00;95705.00;;;;4898131;29;20048;-63
2023/01/17 10:06:45;;;;;;;6.15;3.67;;;;;4.90;95697.00;;;;4898579;29;20048;-62
2023/01/17 10:09:37;;;;;;;5.75;4.05;;;;;4.80;95691.00;;;;4898321;29;20052;-62
2023/01/17 10:12:27;;;;;;;5.57;3.83;;;;;4.80;95689.00;;;;4898018;29;20053;-63
2023/01/17 10:15:16;;;;;;;5.82;3.22;;;;;4.90;95683.00;;;;4897520;29;20100;-62
2023/01/17 10:18:08;;;;;;;6.90;3.42;;;;;4.90;95692.00;;;;4898126;29;20085;-62
2023/01/17 10:21:15;;;;;;;8.23;4.28;;;;;4.80;95693.00;;;;4897139;29;20104;-62
2023/01/17 10:23:44;;;;;;;;;;;;;4.90;95679.00;;;;4898496;29;20052;-62
2023/01/17 10:26:16;;;;;;;8.88;3.95;;;;;4.90;95676.00;;;;4898006;29;19979;-62
2023/01/17 10:28:47;;;;;;;5.57;3.75;;;;;5.00;95668.00;;;;4896978;29;20060;-62
2023/01/17 10:31:23;;;;;;;7.97;3.70;;;;;4.90;95667.00;;;;4897335;29;20045;-62
2023/01/17 10:33:54;;;;;;;4.82;3.15;;;;;4.90;95662.00;;;;4897693;29;20056;-62
2023/01/17 10:36:24;;;;;;;7.22;3.50;;;;;5.00;95666.00;;;;4897385;29;20049;-62
2023/01/17 10:38:53;;;;;;;3.63;3.00;;;;;5.00;95666.00;;;;4897813;29;20053;-62
2023/01/17 10:41:25;;;;;;;8.07;3.38;;;;;4.90;95655.00;;;;4897869;29;20048;-62
2023/01/17 10:44:19;;;;;;;6.07;3.00;;;;;4.90;95653.00;;;;4898060;29;20048;-61
2023/01/17 10:46:52;;;;;;;4.60;3.00;;;;;4.80;95646.00;;;;4900268;29;20049;-62
2023/01/17 10:49:21;;;;;;;5.47;2.97;;;;;4.80;95650.00;;;;4901938;29;20321;-61
2023/01/17 10:52:11;;;;;;;6.43;3.38;;;;;4.90;95636.00;;;;4902570;29;20052;-62
2023/01/17 10:54:57;;;;;;;4.88;3.35;;;;;5.00;95631.00;;;;4902371;29;20137;-61
2023/01/17 10:57:26;;;;;;;6.93;3.33;;;;;5.10;95634.00;;;;4903255;29;20056;-61
2023/01/17 10:59:58;;;;;;;6.47;3.25;;;;;5.10;95640.00;;;;4902705;29;20083;-62
2023/01/17 11:02:30;;;;;;;5.68;2.45;;;;;5.20;95630.00;;;;4902666;29;20048;-62
2023/01/17 11:05:02;;;;;;;4.07;2.67;;;;;5.30;95631.00;;;;4901539;29;20131;-62
2023/01/17 11:07:28;;;;;;;5.35;3.20;;;;;5.30;95630.00;;;;4902369;29;20108;-62
2023/01/17 11:09:56;;;;;;;4.25;2.70;;;;;5.40;95626.00;;;;4900434;29;20490;-62
2023/01/17 11:12:29;;;;;;;4.47;2.90;;;;;5.50;95640.00;;;;4901021;29;20044;-62
2023/01/17 11:15:09;;;;;;;6.57;2.83;;;;;5.50;95638.00;;;;4901284;29;20537;-62
2023/01/17 11:17:40;;;;;;;6.03;2.50;;;;;5.60;95631.00;;;;4901410;29;20056;-62
2023/01/17 11:20:32;;;;;;;8.60;2.97;;;;;5.60;95630.00;;;;4901667;29;20052;-62
2023/01/17 11:23:15;;;;;;;7.10;2.70;;;;;5.60;95627.00;;;;4901367;29;20072;-62
2023/01/17 11:25:57;;;;;;;5.88;3.05;;;;;5.70;95615.00;;;;4900430;29;20053;-62
2023/01/17 11:28:29;;;;;;;6.35;2.78;;;;;5.80;95628.00;;;;4900983;29;20108;-63
2023/01/17 11:31:02;;;;;;;7.97;2.55;;;;;5.80;95619.00;;;;4900191;29;20097;-62
2023/01/17 11:33:44;;;;;;;4.80;2.75;;;;;5.70;95612.00;;;;4899857;29;20059;-62
2023/01/17 11:36:23;;;;;;;3.95;2.35;;;;;5.90;95614.00;;;;4897895;29;20127;-62
2023/01/17 11:39:26;;;;;;;6.85;2.83;;;;;5.90;95602.00;;;;4899524;29;20060;-62
2023/01/17 11:41:53;;;;;;;5.18;2.22;;;;;6.00;95601.00;;;;4934147;29;20401;-62
2023/01/17 11:44:31;;;;;;;3.05;2.00;;;;;6.00;95599.00;;;;4907460;29;20064;-62
2023/01/17 11:47:12;;;;;;;4.05;2.30;;;;;6.00;95584.00;;;;4901339;29;20044;-62
2023/01/17 11:49:41;;;;;;;6.75;3.03;;;;;5.90;95590.00;;;;4901584;29;20112;-62
2023/01/17 11:52:22;;;;;;;5.43;2.00;;;;;5.90;95586.00;;;;4899886;29;20044;-62
2023/01/17 11:54:50;;;;;;;5.65;3.42;;;;;5.90;95579.00;;;;4901474;29;20096;-62
2023/01/17 11:57:29;;;;;;;5.05;3.33;;;;;6.00;95571.00;;;;4902797;29;20056;-62
2023/01/17 12:00:10;;;;;;;3.00;1.95;;;;;6.00;95562.00;;;;4903036;29;20458;-62
2023/01/17 12:02:42;;;;;;;2.40;1.63;;;;;5.90;95555.00;;;;4900986;29;20075;-62
2023/01/17 12:05:30;;;;;;;2.88;1.95;;;;;6.00;95550.00;;;;4901655;29;20096;-62
2023/01/17 12:08:15;;;;;;;4.10;2.70;;;;;5.90;95554.00;;;;4901334;29;20045;-62
2023/01/17 12:10:54;;;;;;;4.40;2.42;;;;;6.00;95558.00;;;;4900806;29;20056;-62
2023/01/17 12:16:30;;;;;;;5.53;2.75;;;;;6.10;95551.00;;;;4901601;29;20056;-62
2023/01/17 12:19:05;;;;;;;3.97;2.00;;;;;6.10;95535.00;;;;4902418;29;20085;-62
2023/01/17 12:21:48;;;;;;;3.17;2.03;;;;;6.20;95532.00;;;;4902332;29;20052;-62
2023/01/17 12:24:38;;;;;;;4.07;2.03;;;;;6.30;95527.00;;;;4901688;29;20081;-62
2023/01/17 12:27:24;;;;;;;4.60;2.72;;;;;6.40;95523.00;;;;4901831;29;20451;-62
2023/01/17 12:29:57;;;;;;;3.97;2.13;;;;;6.40;95522.00;;;;4902348;29;20052;-62
2023/01/17 12:32:39;;;;;;;3.08;1.75;;;;;6.30;95518.00;;;;4901276;29;20044;-62
2023/01/17 12:35:19;;;;;;;5.28;2.00;;;;;6.20;95510.00;;;;4899634;29;20048;-62
2023/01/17 12:37:51;;;;;;;2.47;1.85;;;;;6.20;95520.00;;;;4900831;29;20391;-62
2023/01/17 12:40:36;;;;;;;4.20;2.00;;;;;6.10;95512.00;;;;4900226;29;20469;-62
2023/01/17 12:43:54;;;;;;;3.20;2.05;;;;;6.10;95509.00;;;;4901721;29;20140;-61
2023/01/17 12:46:32;;;;;;;4.07;1.88;;;;;6.00;95508.00;;;;4920422;29;20112;-61
2023/01/17 12:49:15;;;;;;;2.72;1.92;;;;;6.00;95507.00;;;;4901578;29;20467;-62
2023/01/17 12:51:44;;;;;;;2.33;1.80;;;;;6.10;95511.00;;;;4901176;29;20055;-61
2023/01/17 12:54:36;;;;;;;4.43;2.15;;;;;6.00;95511.00;;;;4898445;29;20457;-61
2023/01/17 12:57:30;;;;;;;3.22;1.80;;;;;6.10;95518.00;;;;4899538;29;20383;-60
2023/01/17 13:00:06;;;;;;;11.48;3.83;;;;;6.10;95513.00;;;;4899413;29;20048;-61
2023/01/17 13:03:04;;;;;;;6.30;3.13;;;;;6.10;95500.00;;;;4898948;29;20406;-61
2023/01/17 13:05:40;;;;;;;6.03;2.80;;;;;6.20;95512.00;;;;4898869;29;20049;-60
2023/01/17 13:08:25;;;;;;;6.65;2.90;;;;;6.30;95509.00;;;;4899337;29;20049;-61
2023/01/17 13:11:01;;;;;;;4.97;2.47;;;;;6.30;95495.00;;;;4899370;29;20447;-61
2023/01/17 13:13:29;;;;;;;5.20;3.20;;;;;6.20;95492.00;;;;4898895;29;20060;-61
2023/01/17 13:16:10;;;;;;;6.53;3.40;;;;;6.20;95482.00;;;;4898423;29;20426;-61
2023/01/17 13:18:43;;;;;;;3.92;1.90;;;;;6.10;95481.00;;;;4898982;29;20052;-61
2023/01/17 13:21:22;;;;;;;3.75;2.10;;;;;6.00;95467.00;;;;4898876;29;20055;-61
2023/01/17 13:24:06;;;;;;;3.67;2.00;;;;;5.90;95470.00;;;;4899473;29;20458;-61
2023/01/17 13:26:54;;;;;;;2.78;2.25;;;;;5.90;95470.00;;;;4897791;29;20470;-61
2023/01/17 13:29:47;;;;;;;3.88;2.10;;;;;5.80;95459.00;;;;4898719;29;20501;-61
2023/01/17 13:32:47;;;;;;;4.60;2.30;;;;;5.70;95465.00;;;;4902263;29;20053;-61
2023/01/17 13:35:19;;;;;;;4.13;2.10;;;;;5.70;95453.00;;;;4898266;29;20100;-61
2023/01/17 13:38:02;;;;;;;5.88;2.45;;;;;5.80;95460.00;;;;4898530;29;20073;-61
2023/01/17 13:40:57;;;;;;;3.78;2.13;;;;;5.80;95459.00;;;;4898571;29;20053;-61
2023/01/17 13:43:27;;;;;;;3.88;2.35;;;;;5.80;95441.00;;;;4898341;29;20390;-61
2023/01/17 13:45:59;;;;;;;3.88;2.17;;;;;5.70;95439.00;;;;4897818;29;20048;-61
2023/01/17 13:48:28;;;;;;;4.07;1.90;;;;;5.60;95445.00;;;;4898418;29;20044;-61
2023/01/17 13:50:57;;;;;;;3.75;2.20;;;;;5.60;95434.00;;;;4898527;29;20052;-61
2023/01/17 13:53:33;;;;;;;4.57;2.00;;;;;5.60;95435.00;;;;4897928;29;20037;-62
2023/01/17 13:56:18;;;;;;;4.35;1.80;;;;;5.60;95449.00;;;;4896318;29;20049;-61
2023/01/17 13:58:53;;;;;;;5.60;1.92;;;;;5.50;95453.00;;;;4898072;29;20052;-61
2023/01/17 14:01:22;;;;;;;4.90;2.17;;;;;5.50;95450.00;;;;4897975;29;20048;-62
2023/01/17 14:03:49;;;;;;;3.55;1.92;;;;;5.40;95475.00;;;;4898044;29;20536;-62
2023/01/17 14:06:40;;;;;;;3.78;1.80;;;;;5.40;95483.00;;;;4897046;29;20105;-62
2023/01/17 14:09:06;;;;;;;3.17;2.08;;;;;5.40;95492.00;;;;4896901;29;20395;-62
2023/01/17 14:11:34;;;;;;;4.20;2.72;;;;;5.50;95486.00;;;;4897765;29;20045;-62
2023/01/17 14:14:38;;;;;;;6.65;2.38;;;;;5.50;95483.00;;;;4897828;29;20056;-62
2023/01/17 14:17:28;;;;;;;11.35;6.10;;;;;5.40;95498.00;;;;4897718;29;20045;-62
2023/01/17 14:20:08;;;;;;;11.40;6.22;;;;;5.40;95513.00;;;;4897907;29;20055;-62
2023/01/17 14:22:39;;;;;;;7.95;2.83;;;;;5.30;95504.00;;;;4897673;29;20049;-62
2023/01/17 14:25:13;;;;;;;5.47;2.75;;;;;5.30;95513.00;;;;4897207;29;20044;-62
2023/01/17 14:27:52;;;;;;;5.32;3.38;;;;;5.30;95512.00;;;;4897710;29;20071;-62
2023/01/17 14:30:24;;;;;;;4.00;2.80;;;;;5.20;95517.00;;;;4897737;29;20112;-62
2023/01/17 14:33:00;;;;;;;8.68;3.38;;;;;5.30;95526.00;;;;4897550;29;20044;-61
2023/01/17 14:35:35;;;;;;;7.38;3.30;;;;;5.40;95525.00;;;;4897198;29;20224;-61
2023/01/17 14:38:14;;;;;;;5.93;3.33;;;;;5.30;95524.00;;;;4897674;29;20112;-62
2023/01/17 14:40:57;;;;;;;5.57;2.85;;;;;5.40;95518.00;;;;4897339;29;20458;-62
2023/01/17 14:43:27;;;;;;;6.88;4.15;;;;;5.30;95525.00;;;;4897415;29;20458;-62
2023/01/17 14:46:05;;;;;;;3.65;2.80;;;;;5.30;95521.00;;;;4897011;29;20100;-62
2023/01/17 14:48:32;;;;;;;6.97;3.47;;;;;5.20;95519.00;;;;4897876;29;20045;-61
2023/01/17 14:51:00;;;;;;;9.23;3.30;;;;;5.10;95513.00;;;;4897319;29;20506;-62
2023/01/17 14:53:30;;;;;;;5.72;3.08;;;;;5.00;95516.00;;;;4895849;29;20044;-61
2023/01/17 14:56:10;;;;;;;3.97;2.83;;;;;5.00;95521.00;;;;4895608;29;20061;-61
2023/01/17 14:58:38;;;;;;;7.65;3.55;;;;;5.00;95521.00;;;;4897441;29;20198;-61
2023/01/17 15:01:17;;;;;;;5.90;3.33;;;;;5.00;95521.00;;;;4897246;29;20501;-61
2023/01/17 15:03:47;;;;;;;6.35;3.50;;;;;4.80;95523.00;;;;4897224;29;20045;-60
2023/01/17 15:06:20;;;;;;;4.28;3.20;;;;;4.80;95529.00;;;;4896624;29;20108;-61
2023/01/17 15:08:47;;;;;;;6.47;3.17;;;;;4.70;95536.00;;;;4896060;29;20056;-59
2023/01/17 15:11:22;;;;;;;6.15;2.72;;;;;4.70;95513.00;;;;4896991;29;20124;-60
2023/01/17 15:13:53;;;;;;;6.18;3.17;;;;;4.70;95524.00;;;;4897374;29;20101;-61
2023/01/17 15:16:28;;;;;;;6.10;3.65;;;;;4.70;95531.00;;;;4896678;29;20052;-60
2023/01/17 15:18:56;;;;;;;7.15;3.17;;;;;4.70;95516.00;;;;4899295;29;20104;-59
2023/01/17 15:21:28;;;;;;;9.35;3.90;;;;;4.70;95528.00;;;;4901032;29;20115;-60
2023/01/17 15:24:25;;;;;;;7.07;3.40;;;;;4.70;95527.00;;;;4900346;29;20053;-60
2023/01/17 15:26:52;;;;;;;4.65;3.45;;;;;4.60;95520.00;;;;4903394;29;20056;-61
2023/01/17 15:29:24;;;;;;;4.47;3.55;;;;;4.50;95522.00;;;;4901129;29;20044;-60
2023/01/17 15:31:59;;;;;;;8.52;3.08;;;;;4.40;95527.00;;;;4899513;29;20056;-61
2023/01/17 15:34:37;;;;;;;6.70;3.25;;;;;4.30;95525.00;;;;4899406;29;20429;-60
2023/01/17 15:37:20;;;;;;;8.52;4.85;;;;;4.30;95523.00;;;;4901453;29;20418;-60
2023/01/17 15:39:47;;;;;;;10.63;5.25;;;;;4.20;95522.00;;;;4900898;29;20048;-60
2023/01/17 15:42:30;;;;;;;31.05;15.38;;;;;4.20;95521.00;;;;4901129;29;20072;-61
2023/01/17 15:45:03;;;;;;;14.93;7.57;;;;;4.20;95521.00;;;;4900097;29;20044;-61
2023/01/17 15:47:32;;;;;;;11.15;6.70;;;;;4.20;95532.00;;;;4900627;29;20104;-61
2023/01/17 15:50:01;;;;;;;10.23;6.05;;;;;4.20;95525.00;;;;4900596;29;20117;-61
2023/01/17 15:52:28;;;;;;;9.02;6.22;;;;;4.10;95521.00;;;;4900529;29;20080;-61
2023/01/17 15:55:13;;;;;;;10.02;5.82;;;;;4.10;95516.00;;;;4898735;29;20092;-61
2023/01/17 15:57:46;;;;;;;8.88;5.65;;;;;4.10;95521.00;;;;4903397;29;20047;-60
2023/01/17 16:00:17;;;;;;;10.23;6.05;;;;;4.10;95512.00;;;;4902514;29;20052;-61